Time;durP1;ratioP1;P1;durP2;ratioP2;P2;SDS_P1;SDS_P2;PMS_P1;PMS_P2;Temp;Humidity;BMP_temperature;BMP_pressure;BME280_temperature;BME280_humidity;BME280_pressure;Samples;Min_cycle;Max_cycle;Signal;HPM_P1;HPM_P2
2023/04/09 00:01:54;;;;;;;9.48;5.90;;;;;;;12.33;82.18;102013.03;5074085;28;20056;-88
2023/04/09 00:04:22;;;;;;;9.52;5.75;;;;;;;12.26;82.00;102000.34;5073288;28;20102;-88
2023/04/09 00:06:48;;;;;;;7.68;5.30;;;;;;;12.13;82.31;101982.00;5056776;28;20393;-88
2023/04/09 00:09:13;;;;;;;7.35;5.18;;;;;;;12.40;82.28;102023.16;5075048;28;20028;-88
2023/04/09 00:11:39;;;;;;;8.85;5.53;;;;;;;12.03;81.85;101962.16;5072414;28;20077;-88
2023/04/09 00:14:04;;;;;;;8.95;5.75;;;;;;;12.21;82.11;101989.56;5056120;28;20498;-87
2023/04/09 00:16:30;;;;;;;7.18;4.82;;;;;;;12.12;82.18;101972.31;5089523;28;20020;-87
2023/04/09 00:18:56;;;;;;;9.02;5.30;;;;;;;12.17;82.23;101990.19;5072698;28;20032;-87
2023/04/09 00:21:21;;;;;;;7.70;5.20;;;;;;;11.87;81.99;101933.09;5089150;28;20044;-88
2023/04/09 00:23:47;;;;;;;7.35;4.95;;;;;;;12.07;81.92;101977.25;5064381;28;20035;-88
2023/04/09 00:26:13;;;;;;;11.15;5.35;;;;;;;12.35;82.04;102021.00;5073325;28;20029;-88
2023/04/09 00:28:38;;;;;;;8.02;5.50;;;;;;;12.33;81.94;102022.63;5072889;28;20111;-88
2023/04/09 00:31:04;;;;;;;7.53;5.40;;;;;;;12.10;81.94;101974.84;5068312;28;20033;-87
2023/04/09 00:33:30;;;;;;;7.43;5.35;;;;;;;11.98;82.25;101954.00;5065712;28;20050;-87
2023/04/09 00:35:55;;;;;;;9.82;5.82;;;;;;;12.23;82.02;101989.66;5073690;28;20163;-87
2023/04/09 00:38:21;;;;;;;7.75;5.25;;;;;;;11.92;81.83;101934.34;5072161;28;20472;-87
2023/04/09 00:40:50;;;;;;;7.20;5.40;;;;;;;11.94;81.69;101938.88;5073100;28;20032;-87
2023/04/09 00:43:19;;;;;;;10.25;5.00;;;;;;;12.34;81.66;102009.63;5056377;28;20466;-87
2023/04/09 00:45:45;;;;;;;6.60;5.13;;;;;;;12.04;82.04;101963.03;5073248;28;20025;-87
2023/04/09 00:48:12;;;;;;;7.68;5.30;;;;;;;12.25;81.93;101995.91;5055515;28;20021;-87
2023/04/09 00:50:37;;;;;;;8.65;5.13;;;;;;;12.12;81.88;101981.09;5055232;28;20449;-87
2023/04/09 00:53:04;;;;;;;7.07;4.85;;;;;;;12.12;81.83;101990.66;5072958;28;20024;-87
2023/04/09 00:55:30;;;;;;;7.70;5.43;;;;;;;12.06;81.76;101975.44;5054786;28;20032;-86
2023/04/09 00:57:56;;;;;;;;;;;;;;;12.35;81.56;102014.06;5055502;28;20468;-87
2023/04/09 01:00:21;;;;;;;6.72;5.00;;;;;;;12.32;81.82;102019.09;5054867;28;19908;-87
2023/04/09 01:02:47;;;;;;;7.38;5.05;;;;;;;12.28;81.81;102008.31;5055092;28;20482;-87
2023/04/09 01:05:14;;;;;;;6.13;5.05;;;;;;;12.00;81.53;101964.53;5072759;28;20386;-87
2023/04/09 01:07:58;;;;;;;;;;;;;;;12.35;81.43;102015.78;5055744;28;20028;-87
2023/04/09 01:10:48;;;;;;;11.40;4.95;;;;;;;12.14;81.64;101983.81;5060805;28;20041;-87
2023/04/09 01:13:52;;;;;;;7.25;5.32;;;;;;;12.25;81.54;102003.75;5072186;28;20062;-87
2023/04/09 01:16:21;;;;;;;6.25;5.10;;;;;;;12.28;81.75;102010.94;5069435;28;20029;-87
2023/04/09 01:19:01;;;;;;;6.82;4.82;;;;;;;12.29;81.90;102015.34;5055034;28;20104;-87
2023/04/09 01:21:32;;;;;;;7.07;5.25;;;;;;;12.22;81.93;102001.84;5071380;28;20032;-88
2023/04/09 01:24:46;;;;;;;7.00;4.70;;;;;;;12.30;81.52;102015.47;5038086;28;20032;-87
2023/04/09 01:27:12;;;;;;;6.88;4.93;;;;;;;12.12;81.64;101991.56;5014288;28;20064;-87
2023/04/09 01:29:43;;;;;;;;;;;;;;;12.28;81.65;102009.22;5036259;28;20039;-88
2023/04/09 01:32:09;;;;;;;10.70;5.28;;;;;;;12.21;81.43;102005.28;5075125;28;19909;-88
2023/04/09 01:34:35;;;;;;;6.93;5.03;;;;;;;12.02;81.42;101965.56;5086477;28;20052;-87
2023/04/09 01:37:02;;;;;;;7.72;4.88;;;;;;;12.24;82.18;102012.44;5045705;28;20405;-87
2023/04/09 01:39:28;;;;;;;7.57;5.43;;;;;;;12.17;81.69;101994.47;5054140;28;20103;-87
2023/04/09 01:41:55;;;;;;;8.02;5.20;;;;;;;12.16;81.93;101997.91;5075186;28;20148;-87
2023/04/09 01:44:21;;;;;;;6.90;4.78;;;;;;;12.03;81.71;101967.38;5070665;28;20486;-88
2023/04/09 01:46:48;;;;;;;7.07;4.65;;;;;;;12.02;81.64;101958.63;5070888;28;20035;-87
2023/04/09 01:49:14;;;;;;;6.93;4.90;;;;;;;11.86;81.55;101936.53;5070377;28;20406;-88
2023/04/09 01:51:40;;;;;;;7.00;4.95;;;;;;;12.18;81.59;101991.06;5070544;28;20016;-87
2023/04/09 01:54:07;;;;;;;6.80;4.53;;;;;;;12.09;81.85;101974.75;5070254;28;20025;-87
2023/04/09 01:56:42;;;;;;;6.47;4.55;;;;;;;12.13;81.85;101985.53;5063409;28;20023;-87
2023/04/09 01:59:08;;;;;;;6.95;4.93;;;;;;;12.14;81.44;101976.84;5073777;28;20017;-87
2023/04/09 02:01:38;;;;;;;6.55;5.00;;;;;;;12.17;81.45;101978.75;5073600;28;20031;-87
2023/04/09 02:04:09;;;;;;;6.57;4.72;;;;;;;12.14;81.33;101989.94;5073908;28;20032;-88
2023/04/09 02:06:43;;;;;;;7.03;5.25;;;;;;;12.22;81.68;101991.38;5070534;28;20065;-87
2023/04/09 02:09:10;;;;;;;8.02;4.65;;;;;;;12.09;81.44;101972.13;5070631;28;20027;-87
2023/04/09 02:11:37;;;;;;;6.80;4.93;;;;;;;12.21;81.57;101996.50;5070812;28;20043;-87
2023/04/09 02:14:03;;;;;;;8.50;5.22;;;;;;;12.06;81.32;101970.19;5072112;28;20162;-87
2023/04/09 02:16:30;;;;;;;6.88;4.75;;;;;;;12.19;81.19;101992.88;5070295;28;20023;-87
2023/04/09 02:18:56;;;;;;;8.43;5.20;;;;;;;12.17;81.05;101989.25;5051016;28;20029;-87
2023/04/09 02:21:23;;;;;;;6.10;4.60;;;;;;;12.17;81.50;101994.47;5069796;28;20024;-87
2023/04/09 02:23:49;;;;;;;;;;;;;;;12.20;81.22;101997.31;5069681;28;20174;-87
2023/04/09 02:26:14;;;;;;;7.32;4.75;;;;;;;11.81;81.33;101937.13;5068650;28;19924;-87
2023/04/09 02:28:40;;;;;;;7.90;4.95;;;;;;;11.93;81.34;101960.59;5071512;28;20051;-87
2023/04/09 02:31:07;;;;;;;7.47;4.78;;;;;;;12.14;81.33;101997.81;5057979;28;20033;-87
2023/04/09 02:33:32;;;;;;;5.85;4.65;;;;;;;11.88;81.28;101950.63;5071584;28;20028;-87
2023/04/09 02:35:58;;;;;;;6.70;5.30;;;;;;;12.14;81.15;101989.06;5071258;28;20023;-86
2023/04/09 02:38:23;;;;;;;7.40;5.00;;;;;;;12.04;81.28;101976.13;5069958;28;20027;-86
2023/04/09 02:40:49;;;;;;;6.85;4.78;;;;;;;11.93;80.99;101957.09;5071120;28;20040;-87
2023/04/09 02:43:14;;;;;;;7.43;4.55;;;;;;;11.97;81.15;101965.25;5068190;28;20052;-87
2023/04/09 02:45:40;;;;;;;5.85;4.22;;;;;;;11.94;81.24;101966.78;5068974;28;20093;-87
2023/04/09 02:48:06;;;;;;;6.15;4.70;;;;;;;12.00;81.15;101972.41;5070902;28;20115;-87
2023/04/09 02:50:31;;;;;;;5.95;4.78;;;;;;;11.98;80.95;101974.00;5070221;28;20058;-87
2023/04/09 02:52:57;;;;;;;5.35;4.28;;;;;;;11.71;81.41;101926.81;5060310;28;20036;-87
2023/04/09 02:55:22;;;;;;;6.93;4.63;;;;;;;11.67;81.39;101918.66;5082801;28;20413;-87
2023/04/09 02:57:48;;;;;;;6.10;4.50;;;;;;;11.86;81.36;101958.34;5070590;28;20487;-87
2023/04/09 03:00:14;;;;;;;6.53;4.68;;;;;;;11.80;81.20;101935.28;5070936;28;20032;-87
2023/04/09 03:02:39;;;;;;;6.50;4.82;;;;;;;11.92;81.09;101968.38;5071167;28;20032;-87
2023/04/09 03:05:05;;;;;;;6.20;4.47;;;;;;;11.68;81.31;101928.31;5086325;28;20060;-86
2023/04/09 03:07:31;;;;;;;6.00;4.75;;;;;;;11.98;80.94;101976.63;5070836;28;20167;-87
2023/04/09 03:09:56;;;;;;;5.80;4.40;;;;;;;11.82;81.02;101957.22;5069386;28;20028;-87
2023/04/09 03:12:22;;;;;;;5.53;4.47;;;;;;;12.06;81.19;101992.84;5070943;28;20020;-86
2023/04/09 03:14:48;;;;;;;5.93;4.50;;;;;;;11.82;81.18;101962.47;5068967;28;20486;-87
2023/04/09 03:17:13;;;;;;;7.50;4.40;;;;;;;11.94;81.17;101980.75;5069648;28;20036;-88
2023/04/09 03:19:39;;;;;;;5.60;4.30;;;;;;;11.93;80.84;101980.66;5069440;28;20024;-87
2023/04/09 03:22:04;;;;;;;5.55;4.18;;;;;;;11.96;80.83;101986.13;5058884;28;20115;-86
2023/04/09 03:24:33;;;;;;;6.13;4.45;;;;;;;11.79;80.67;101948.28;5065848;28;20479;-87
2023/04/09 03:26:58;;;;;;;5.88;4.40;;;;;;;12.09;80.76;102001.84;5062472;28;20452;-86
2023/04/09 03:29:24;;;;;;;4.57;4.10;;;;;;;11.87;80.64;101967.09;5069560;28;20029;-87
2023/04/09 03:31:51;;;;;;;7.25;3.92;;;;;;;11.73;80.83;101938.28;5052360;28;20036;-87
2023/04/09 03:34:17;;;;;;;7.10;4.25;;;;;;;11.93;80.90;101970.19;5069386;28;20036;-88
2023/04/09 03:36:42;;;;;;;5.80;4.28;;;;;;;11.82;80.65;101965.09;5069692;28;20028;-87
2023/04/09 03:39:08;;;;;;;6.65;4.50;;;;;;;11.56;80.52;101917.94;5068920;28;20028;-87
2023/04/09 03:41:33;;;;;;;5.70;4.55;;;;;;;11.85;80.94;101968.72;5070290;28;20147;-87
2023/04/09 03:43:59;;;;;;;6.30;4.55;;;;;;;11.81;80.49;101965.00;5070378;28;20563;-87
2023/04/09 03:46:24;;;;;;;6.18;4.50;;;;;;;11.94;80.90;101985.09;5052522;28;20028;-87
2023/04/09 03:48:50;;;;;;;5.35;4.28;;;;;;;11.94;80.75;101996.47;5070282;28;20484;-87
2023/04/09 03:51:16;;;;;;;5.93;4.30;;;;;;;11.95;80.74;101998.28;5035717;28;20047;-87
2023/04/09 03:53:42;;;;;;;6.40;4.38;;;;;;;12.04;80.80;102016.31;5035857;28;20044;-86
2023/04/09 03:56:09;;;;;;;5.45;4.20;;;;;;;11.82;80.49;101983.41;5052317;28;20050;-86
2023/04/09 03:58:34;;;;;;;5.82;4.35;;;;;;;11.60;80.59;101946.13;5052474;28;20028;-86
2023/04/09 04:01:00;;;;;;;6.90;4.60;;;;;;;12.02;80.55;102021.47;5060666;28;20033;-86
2023/04/09 04:03:26;;;;;;;6.35;4.30;;;;;;;11.98;80.36;102013.28;5053171;28;20052;-86
2023/04/09 04:05:52;;;;;;;4.85;4.10;;;;;;;11.95;80.66;102010.47;5039257;28;20037;-86
2023/04/09 04:08:18;;;;;;;8.05;4.38;;;;;;;11.84;80.04;101994.00;5039623;28;20028;-86
2023/04/09 04:10:43;;;;;;;5.53;4.13;;;;;;;11.90;80.58;102004.91;5073727;28;20032;-86
2023/04/09 04:13:09;;;;;;;5.27;4.30;;;;;;;11.66;80.21;101954.38;5055865;28;20032;-86
2023/04/09 04:15:41;;;;;;;5.07;4.22;;;;;;;11.94;80.55;102012.19;5055496;28;20292;-86
2023/04/09 04:18:07;;;;;;;8.18;4.55;;;;;;;11.65;80.49;101962.13;5073742;28;20025;-86
2023/04/09 04:20:33;;;;;;;;;;;;;;;12.03;80.27;102030.22;5056354;28;20032;-86
2023/04/09 04:22:59;;;;;;;5.97;4.05;;;;;;;11.67;80.72;101973.63;5039945;28;19908;-86
2023/04/09 04:25:24;;;;;;;6.05;4.38;;;;;;;11.44;80.63;101938.00;5073438;28;20127;-87
2023/04/09 04:27:50;;;;;;;5.00;3.78;;;;;;;11.70;80.87;101987.78;5055535;28;20120;-86
2023/04/09 04:30:15;;;;;;;5.93;3.80;;;;;;;11.71;80.75;101996.56;5055978;28;20473;-86
2023/04/09 04:32:41;;;;;;;5.65;4.05;;;;;;;11.63;80.50;101980.34;5055703;28;20429;-86
2023/04/09 04:35:15;;;;;;;6.38;4.05;;;;;;;11.81;80.53;102020.88;5075250;28;20036;-86
2023/04/09 04:37:41;;;;;;;5.32;3.90;;;;;;;11.89;80.72;102028.34;5063554;28;20064;-84
2023/04/09 04:40:07;;;;;;;4.85;3.80;;;;;;;11.81;80.37;102015.63;5073992;28;20028;-86
2023/04/09 04:42:33;;;;;;;;;;;;;;;11.95;80.47;102034.91;5085712;28;20044;-87
2023/04/09 04:44:59;;;;;;;5.78;4.20;;;;;;;11.56;80.46;101978.09;5075271;28;19919;-85
2023/04/09 04:47:24;;;;;;;6.65;4.28;;;;;;;11.81;80.59;102043.53;5075185;28;20493;-85
2023/04/09 04:49:50;;;;;;;6.28;4.40;;;;;;;11.90;80.38;102045.91;5074974;28;20031;-85
2023/04/09 04:52:16;;;;;;;5.50;4.03;;;;;;;11.63;80.37;101997.75;5071175;28;20490;-86
2023/04/09 04:54:42;;;;;;;4.82;4.03;;;;;;;11.90;80.68;102056.38;5095743;28;20035;-85
2023/04/09 04:57:07;;;;;;;5.85;4.40;;;;;;;11.84;80.66;102048.06;5094036;28;20016;-85
2023/04/09 04:59:36;;;;;;;6.53;4.07;;;;;;;11.55;80.11;101998.09;5085387;28;20031;-85
2023/04/09 05:02:03;;;;;;;4.93;4.18;;;;;;;11.85;80.49;102045.50;5089791;28;20041;-85
2023/04/09 05:04:28;;;;;;;5.43;4.10;;;;;;;11.87;80.38;102046.53;5097234;28;20100;-86
2023/04/09 05:06:54;;;;;;;6.75;4.03;;;;;;;11.60;80.26;102009.81;5084941;28;20041;-85
2023/04/09 05:09:20;;;;;;;5.35;4.15;;;;;;;11.46;80.41;101983.50;5094104;28;20024;-86
2023/04/09 05:11:45;;;;;;;5.13;3.85;;;;;;;11.87;80.66;102063.97;5102404;28;20027;-85
2023/04/09 05:14:12;;;;;;;7.13;3.60;;;;;;;11.82;80.53;102053.16;5071275;28;20039;-85
2023/04/09 05:16:37;;;;;;;;;;;;;;;11.87;80.50;102063.97;5090646;28;20021;-85
2023/04/09 05:19:02;;;;;;;5.55;3.88;;;;;;;11.78;80.35;102045.91;5072486;28;19942;-86
2023/04/09 05:21:30;;;;;;;5.13;3.75;;;;;;;11.63;80.97;102035.28;5067935;28;20036;-87
2023/04/09 05:23:56;;;;;;;4.32;3.50;;;;;;;11.68;80.38;102038.22;5072457;28;20044;-87
2023/04/09 05:26:22;;;;;;;4.97;3.97;;;;;;;11.43;80.66;101999.88;5074556;28;20566;-87
2023/04/09 05:28:48;;;;;;;5.00;4.05;;;;;;;11.71;80.58;102035.81;5097225;28;20039;-86
2023/04/09 05:31:14;;;;;;;6.40;3.75;;;;;;;11.38;80.73;102006.47;5063558;28;20027;-86
2023/04/09 05:33:40;;;;;;;6.85;4.65;;;;;;;11.51;80.64;102017.00;5085001;28;20063;-87
2023/04/09 05:36:06;;;;;;;;;;;;;;;11.85;80.37;102069.06;5071923;28;20071;-86
2023/04/09 05:38:31;;;;;;;5.93;3.90;;;;;;;11.84;80.41;102072.50;5089178;28;20373;-86
2023/04/09 05:40:57;;;;;;;5.85;4.30;;;;;;;11.80;80.66;102070.47;5091329;28;20036;-86
2023/04/09 05:43:24;;;;;;;5.70;4.38;;;;;;;11.57;80.34;102027.00;5088945;28;20048;-88
2023/04/09 05:45:49;;;;;;;6.53;4.38;;;;;;;11.57;80.51;102027.91;5089105;28;20417;-88
2023/04/09 05:48:17;;;;;;;6.03;4.60;;;;;;;11.49;80.55;102017.69;5084689;28;20036;-89
2023/04/09 05:50:52;;;;;;;6.55;4.53;;;;;;;11.79;80.56;102071.28;5069247;28;20562;-88
2023/04/09 05:53:18;;;;;;;7.30;4.28;;;;;;;11.79;80.48;102069.59;5083381;28;20035;-88
2023/04/09 05:55:44;;;;;;;;;;;;;;;11.86;80.21;102068.28;5072897;28;20050;-87
2023/04/09 05:58:11;;;;;;;6.38;4.13;;;;;;;11.48;80.43;102013.28;5076148;28;19919;-87
2023/04/09 06:00:37;;;;;;;6.25;4.63;;;;;;;11.48;80.50;102014.19;5067326;28;20106;-88
2023/04/09 06:03:03;;;;;;;6.57;4.45;;;;;;;11.69;80.69;102042.66;5089576;28;20103;-87
2023/04/09 06:05:30;;;;;;;6.18;4.95;;;;;;;11.71;80.41;102044.56;5069866;28;20036;-88
2023/04/09 06:07:56;;;;;;;6.72;4.57;;;;;;;11.51;80.33;102009.16;5071692;28;20031;-88
2023/04/09 06:10:21;;;;;;;6.88;4.57;;;;;;;11.72;80.43;102045.47;5087897;28;20036;-86
2023/04/09 06:12:47;;;;;;;6.45;4.82;;;;;;;11.63;80.46;102032.66;5074126;28;20119;-86
2023/04/09 06:15:13;;;;;;;6.10;4.35;;;;;;;11.65;80.26;102038.00;5078114;28;20149;-87
2023/04/09 06:17:38;;;;;;;7.85;4.35;;;;;;;11.76;80.05;102057.97;5087829;28;20527;-87
2023/04/09 06:20:05;;;;;;;6.35;4.65;;;;;;;11.71;79.69;102051.53;5080424;28;20032;-88
2023/04/09 06:22:31;;;;;;;7.10;4.85;;;;;;;11.36;80.07;101995.00;5082745;28;20024;-88
2023/04/09 06:24:56;;;;;;;6.10;4.28;;;;;;;11.47;80.12;102011.44;5089446;28;20028;-88
2023/04/09 06:27:22;;;;;;;7.05;4.50;;;;;;;11.81;79.91;102075.81;5076429;28;20046;-87
2023/04/09 06:29:48;;;;;;;6.28;4.70;;;;;;;11.41;79.69;101997.16;5067805;28;20501;-87
2023/04/09 06:32:13;;;;;;;7.25;4.13;;;;;;;11.41;80.13;101998.88;5090070;28;20040;-87
2023/04/09 06:34:39;;;;;;;5.38;4.25;;;;;;;11.43;79.64;102001.56;5065210;28;20063;-86
2023/04/09 06:37:04;;;;;;;4.88;4.03;;;;;;;11.44;79.25;102004.31;5070961;28;20032;-87
2023/04/09 06:39:31;;;;;;;5.88;4.28;;;;;;;11.82;79.62;102092.44;5108189;28;20023;-87
2023/04/09 06:41:57;;;;;;;5.50;4.43;;;;;;;11.69;79.47;102058.34;5064083;28;20051;-85
2023/04/09 06:44:23;;;;;;;5.20;4.10;;;;;;;11.68;79.94;102070.50;5066067;28;20025;-86
2023/04/09 06:46:49;;;;;;;4.75;3.83;;;;;;;11.65;79.38;102059.84;5063084;28;20507;-86
2023/04/09 06:49:15;;;;;;;4.80;3.85;;;;;;;11.72;80.13;102074.25;5073074;28;20540;-86
2023/04/09 06:51:40;;;;;;;5.95;3.97;;;;;;;11.64;80.03;102050.19;5077126;28;20040;-87
2023/04/09 06:54:15;;;;;;;7.55;4.30;;;;;;;11.80;79.80;102083.56;5067041;28;20039;-91
2023/04/09 06:56:42;;;;;;;4.45;3.97;;;;;;;11.24;79.97;101997.69;5067960;28;20032;-89
2023/04/09 06:59:10;;;;;;;5.40;3.90;;;;;;;11.64;79.80;102059.72;5071892;28;20085;-89
2023/04/09 07:01:36;;;;;;;4.90;3.92;;;;;;;11.37;79.74;102008.19;5053877;28;20474;-89
2023/04/09 07:04:03;;;;;;;4.85;3.90;;;;;;;11.31;79.93;101994.69;5063595;28;21106;-88
2023/04/09 07:06:30;;;;;;;5.32;4.28;;;;;;;11.27;79.90;101991.75;5082918;28;20107;-90
2023/04/09 07:08:56;;;;;;;5.93;4.53;;;;;;;11.44;79.80;102021.72;5082310;28;20028;-88
2023/04/09 07:11:21;;;;;;;5.30;4.10;;;;;;;11.45;79.41;102039.22;5068502;28;20036;-89
2023/04/09 07:13:47;;;;;;;5.18;3.90;;;;;;;11.66;80.28;102073.81;5084563;28;20043;-86
2023/04/09 07:16:13;;;;;;;6.32;4.07;;;;;;;11.33;79.57;102029.69;5051624;28;20467;-86
2023/04/09 07:18:39;;;;;;;5.68;4.00;;;;;;;11.66;79.62;102072.13;5054240;28;20132;-88
2023/04/09 07:21:05;;;;;;;6.32;4.22;;;;;;;11.52;79.28;102044.09;5067590;28;20074;-89
2023/04/09 07:23:35;;;;;;;4.95;4.05;;;;;;;11.74;79.89;102081.41;5062584;28;20281;-87
2023/04/09 07:26:02;;;;;;;4.93;3.92;;;;;;;11.50;79.87;102032.63;5063263;28;20044;-88
2023/04/09 07:28:28;;;;;;;6.47;4.05;;;;;;;11.64;79.04;102058.03;5075880;28;20040;-87
2023/04/09 07:30:53;;;;;;;5.47;4.10;;;;;;;11.60;79.46;102051.69;5071387;28;20036;-87
2023/04/09 07:33:19;;;;;;;5.78;4.07;;;;;;;11.68;79.45;102072.22;5078058;28;20040;-86
2023/04/09 07:35:45;;;;;;;6.70;4.40;;;;;;;11.46;79.78;102031.47;5067807;28;20032;-85
2023/04/09 07:38:11;;;;;;;5.35;4.13;;;;;;;11.69;79.70;102069.72;5071572;28;20031;-87
2023/04/09 07:40:36;;;;;;;4.50;3.92;;;;;;;11.66;79.67;102072.13;5079179;28;20024;-89
2023/04/09 07:43:04;;;;;;;5.28;4.00;;;;;;;11.59;79.81;102060.31;5070254;28;20048;-89
2023/04/09 07:45:31;;;;;;;6.38;4.10;;;;;;;11.73;79.92;102097.94;5088903;28;20036;-89
2023/04/09 07:47:58;;;;;;;5.78;4.05;;;;;;;11.83;79.63;102104.69;5077975;28;20713;-90
2023/04/09 07:50:23;;;;;;;5.43;4.18;;;;;;;11.77;79.99;102099.97;5067971;28;20032;-88
2023/04/09 07:52:49;;;;;;;6.25;4.00;;;;;;;11.53;79.91;102058.97;5072371;28;20387;-87
2023/04/09 07:55:16;;;;;;;5.47;4.10;;;;;;;11.45;80.28;102047.06;5088113;28;20054;-89
2023/04/09 07:57:42;;;;;;;5.20;3.80;;;;;;;11.52;79.61;102057.19;5073077;28;20420;-85
2023/04/09 08:00:08;;;;;;;5.13;3.88;;;;;;;11.56;79.52;102057.50;5069036;28;20028;-88
2023/04/09 08:02:34;;;;;;;5.07;4.18;;;;;;;11.75;79.51;102096.34;5056617;28;20056;-89
2023/04/09 08:05:00;;;;;;;5.20;3.75;;;;;;;11.27;79.26;102008.34;5056211;28;20115;-92
2023/04/09 08:07:25;;;;;;;3.95;3.38;;;;;;;11.56;79.38;102070.56;5056564;28;20111;-88
2023/04/09 08:09:55;;;;;;;5.13;3.72;;;;;;;11.58;79.46;102058.50;5073187;28;20595;-88
2023/04/09 08:12:20;;;;;;;4.03;3.35;;;;;;;11.71;79.13;102091.69;5056322;28;20041;-88
2023/04/09 08:14:46;;;;;;;5.07;3.38;;;;;;;11.55;79.40;102058.28;5072726;28;20031;-89
2023/04/09 08:17:11;;;;;;;5.22;3.88;;;;;;;11.75;79.05;102092.81;5072908;28;20029;-86
2023/04/09 08:19:37;;;;;;;4.15;3.45;;;;;;;11.78;78.68;102096.53;5069720;28;20542;-85
2023/04/09 08:22:04;;;;;;;4.60;3.53;;;;;;;11.33;79.45;102021.84;5038724;28;20422;-86
2023/04/09 08:24:30;;;;;;;4.43;3.70;;;;;;;11.70;79.34;102089.84;5070481;28;20029;-90
2023/04/09 08:26:56;;;;;;;5.40;3.70;;;;;;;11.32;78.01;102011.28;5072031;28;20447;-87
2023/04/09 08:29:23;;;;;;;4.63;3.50;;;;;;;11.47;77.49;102025.47;5085178;28;20509;-87
2023/04/09 08:31:48;;;;;;;4.07;3.28;;;;;;;11.52;77.74;102029.31;5072127;28;20029;-86
2023/04/09 08:34:16;;;;;;;9.52;3.55;;;;;;;11.85;77.39;102029.81;5072735;28;20047;-86
2023/04/09 08:36:44;;;;;;;3.85;3.15;;;;;;;12.43;77.35;102093.16;5073213;28;20032;-85
2023/04/09 08:39:10;;;;;;;4.03;3.38;;;;;;;12.54;77.03;102068.59;5072676;28;20039;-85
2023/04/09 08:41:41;;;;;;;3.88;3.15;;;;;;;12.75;77.30;102071.72;5063882;28;20045;-87
2023/04/09 08:44:06;;;;;;;4.45;3.00;;;;;;;12.69;77.31;102042.50;5048290;28;20407;-86
2023/04/09 08:46:35;;;;;;;6.18;3.05;;;;;;;13.05;77.35;102087.66;5048314;28;20035;-87
2023/04/09 08:49:01;;;;;;;4.00;3.15;;;;;;;13.14;77.36;102093.47;5053140;28;20025;-86
2023/04/09 08:51:27;;;;;;;4.43;3.15;;;;;;;13.15;77.10;102074.34;5053915;28;20035;-86
2023/04/09 08:53:57;;;;;;;4.72;2.90;;;;;;;13.02;77.19;102049.03;5053300;28;20031;-86
2023/04/09 08:56:22;;;;;;;4.85;3.13;;;;;;;13.27;77.05;102073.28;5061271;28;20030;-85
2023/04/09 08:58:48;;;;;;;6.22;3.85;;;;;;;13.41;76.88;102089.13;5072520;28;20394;-87
2023/04/09 09:01:18;;;;;;;9.98;3.40;;;;;;;12.96;77.47;102077.47;5054707;28;20043;-88
2023/04/09 09:03:56;;;;;;;5.05;3.67;;;;;;;12.74;78.23;102062.06;5073118;28;20024;-89
2023/04/09 09:06:31;;;;;;;4.85;3.30;;;;;;;12.77;78.97;102084.94;5055268;28;20025;-88
2023/04/09 09:09:08;;;;;;;3.60;3.08;;;;;;;12.55;79.80;102065.19;5055137;28;20032;-87
2023/04/09 09:11:39;;;;;;;5.82;3.65;;;;;;;12.64;79.76;102085.84;5048018;28;20032;-87
2023/04/09 09:14:06;;;;;;;4.55;3.42;;;;;;;12.40;79.65;102044.09;5070575;28;20024;-89
2023/04/09 09:16:43;;;;;;;5.10;3.70;;;;;;;12.62;79.81;102088.34;5056684;28;20395;-88
2023/04/09 09:19:27;;;;;;;4.43;3.47;;;;;;;12.59;79.55;102080.31;5051637;28;20024;-89
2023/04/09 09:21:57;;;;;;;6.78;3.92;;;;;;;12.47;79.65;102065.47;5053911;28;20029;-89
2023/04/09 09:24:23;;;;;;;5.85;3.65;;;;;;;12.33;79.93;102056.66;5052756;28;20032;-88
2023/04/09 09:26:48;;;;;;;5.28;3.67;;;;;;;12.52;79.39;102080.69;5072766;28;20032;-88
2023/04/09 09:29:14;;;;;;;6.50;3.42;;;;;;;12.33;79.62;102048.81;5063689;28;20433;-88
2023/04/09 09:31:50;;;;;;;6.25;3.72;;;;;;;12.20;79.26;102021.78;5054955;28;20494;-90
2023/04/09 09:34:17;;;;;;;4.65;3.60;;;;;;;12.42;79.72;102057.28;5035438;28;20040;-90
2023/04/09 09:36:45;;;;;;;4.78;3.90;;;;;;;12.22;79.22;102035.91;5041721;28;20166;-90
2023/04/09 09:39:12;;;;;;;5.22;3.58;;;;;;;12.54;79.52;102079.06;5071680;28;20055;-89
2023/04/09 09:41:38;;;;;;;4.70;3.55;;;;;;;12.23;79.39;102023.69;5058610;28;20056;-86
2023/04/09 09:44:06;;;;;;;5.00;3.70;;;;;;;12.53;79.15;102073.72;5073479;28;20035;-88
2023/04/09 09:46:41;;;;;;;5.40;3.58;;;;;;;12.49;79.32;102064.75;5073186;28;20028;-86
2023/04/09 09:49:07;;;;;;;6.85;3.83;;;;;;;12.53;79.17;102068.47;5072579;28;20485;-86
2023/04/09 09:51:35;;;;;;;;;;;;;;;12.56;79.52;102074.84;5074142;28;20089;-87
2023/04/09 09:54:02;;;;;;;5.40;3.58;;;;;;;12.44;79.67;102063.53;5072542;28;20556;-86
2023/04/09 09:56:33;;;;;;;;;;;;;;;12.44;79.67;102068.78;5092820;28;20555;-86
2023/04/09 09:59:05;;;;;;;5.60;4.03;;;;;;;12.38;80.15;102057.88;5070177;28;19912;-86
2023/04/09 10:01:31;;;;;;;4.35;3.55;;;;;;;12.31;80.11;102053.03;5091494;28;20532;-85
2023/04/09 10:03:59;;;;;;;4.88;3.78;;;;;;;12.22;80.33;102053.31;5073921;28;20062;-86
2023/04/09 10:06:26;;;;;;;5.40;4.38;;;;;;;12.37;80.15;102067.47;5094974;28;20111;-86
2023/04/09 10:08:56;;;;;;;4.32;3.72;;;;;;;12.35;80.13;102066.44;5073446;28;20032;-87
2023/04/09 10:11:22;;;;;;;4.90;3.80;;;;;;;12.34;79.63;102048.00;5091485;28;20032;-87
2023/04/09 10:14:00;;;;;;;5.40;3.60;;;;;;;12.32;80.36;102071.50;5069620;28;20020;-87
2023/04/09 10:16:27;;;;;;;5.45;3.70;;;;;;;12.21;80.33;102039.34;5059603;28;20503;-87
2023/04/09 10:18:58;;;;;;;4.75;3.80;;;;;;;12.13;80.25;102024.81;5059883;28;20044;-90
2023/04/09 10:21:35;;;;;;;5.57;3.92;;;;;;;12.26;80.88;102052.75;5072245;28;20028;-87
2023/04/09 10:24:04;;;;;;;6.93;4.00;;;;;;;12.21;80.58;102041.97;5088890;28;20366;-86
2023/04/09 10:26:33;;;;;;;4.88;3.92;;;;;;;12.18;80.73;102030.34;5074055;28;20115;-87
2023/04/09 10:29:12;;;;;;;5.75;4.00;;;;;;;12.06;80.87;102016.41;5070832;28;20111;-87
2023/04/09 10:31:55;;;;;;;5.70;3.85;;;;;;;12.14;81.16;102044.03;5072877;28;20051;-87
2023/04/09 10:34:22;;;;;;;4.63;3.58;;;;;;;11.92;81.03;101986.72;5068737;28;20036;-88
2023/04/09 10:37:01;;;;;;;4.88;3.83;;;;;;;12.03;81.59;102022.38;5068811;28;20020;-87
2023/04/09 10:39:31;;;;;;;4.50;3.72;;;;;;;12.17;81.27;102044.22;5076748;28;20039;-89
2023/04/09 10:41:58;;;;;;;5.15;3.65;;;;;;;12.20;81.16;102050.59;5114593;28;20062;-86
2023/04/09 10:44:36;;;;;;;5.35;3.70;;;;;;;11.82;81.07;101975.56;5056749;28;20032;-87
2023/04/09 10:47:02;;;;;;;6.18;4.10;;;;;;;12.20;81.20;102047.97;5043119;28;20040;-88
2023/04/09 10:49:38;;;;;;;5.15;4.20;;;;;;;12.18;81.80;102038.22;5067405;28;20418;-88
2023/04/09 10:52:06;;;;;;;4.47;3.70;;;;;;;12.17;81.71;102034.69;5049723;28;20090;-88
2023/04/09 10:54:32;;;;;;;5.13;3.75;;;;;;;12.20;81.18;102028.75;5050144;28;20090;-88
2023/04/09 10:57:10;;;;;;;4.97;3.72;;;;;;;12.12;81.72;102028.22;5060793;28;20028;-86
2023/04/09 10:59:41;;;;;;;5.07;3.97;;;;;;;11.92;81.80;101987.59;5070879;28;20035;-87
2023/04/09 11:02:12;;;;;;;5.47;4.20;;;;;;;11.93;81.65;101999.88;5055772;28;20034;-88
2023/04/09 11:05:15;;;;;;;5.70;4.15;;;;;;;12.17;81.71;102023.28;5036796;28;20410;-86
2023/04/09 11:07:46;;;;;;;5.82;4.00;;;;;;;12.10;81.67;102006.25;5063050;28;20079;-87
2023/04/09 11:10:11;;;;;;;5.70;4.22;;;;;;;12.20;81.62;102013.94;5051937;28;20024;-86
2023/04/09 11:12:37;;;;;;;4.18;3.78;;;;;;;12.17;81.88;102012.81;5048337;28;20020;-86
2023/04/09 11:15:03;;;;;;;5.60;4.10;;;;;;;12.06;81.63;101991.13;5067347;28;20028;-86
2023/04/09 11:17:28;;;;;;;6.40;4.15;;;;;;;12.23;81.43;102015.84;5061955;28;20020;-86
2023/04/09 11:19:54;;;;;;;4.78;4.05;;;;;;;11.96;81.55;101973.03;5045160;28;20068;-86
2023/04/09 11:22:20;;;;;;;4.75;3.78;;;;;;;12.11;81.22;101989.75;5070975;28;20486;-86
2023/04/09 11:24:46;;;;;;;5.10;3.88;;;;;;;11.91;81.74;101963.94;5034574;28;20040;-86
2023/04/09 11:27:12;;;;;;;5.38;4.30;;;;;;;12.12;81.37;101988.03;5073190;28;20076;-86
2023/04/09 11:29:37;;;;;;;5.47;4.10;;;;;;;12.19;81.18;101996.41;5062205;28;20031;-86